Time;durP1;ratioP1;P1;durP2;ratioP2;P2;SDS_P1;SDS_P2;PMS_P1;PMS_P2;Temp;Humidity;BMP_temperature;BMP_pressure;BME280_temperature;BME280_humidity;BME280_pressure;Samples;Min_cycle;Max_cycle;Signal;HPM_P1;HPM_P2
2022/09/09 00:02:04;;;;;;;3.03;2.00;;;;;;;21.92;43.64;99403.28;4983272;28;20025;-96
2022/09/09 00:04:30;;;;;;;3.35;1.63;;;;;;;21.97;43.37;99403.84;5000210;28;20109;-94
2022/09/09 00:07:23;;;;;;;3.58;2.00;;;;;;;21.94;43.65;99399.06;5000115;28;20029;-94
2022/09/09 00:09:57;;;;;;;5.05;2.03;;;;;;;21.97;43.81;99403.84;5017171;28;20033;-95
2022/09/09 00:12:44;;;;;;;3.92;1.88;;;;;;;21.98;43.80;99410.16;4983833;28;20030;-95
2022/09/09 00:15:20;;;;;;;4.40;2.35;;;;;;;21.73;46.51;99388.22;4999338;28;20033;-95
2022/09/09 00:18:09;;;;;;;3.03;2.00;;;;;;;21.78;44.10;99395.41;4999893;28;20026;-95
2022/09/09 00:20:54;;;;;;;5.85;2.22;;;;;;;21.49;46.82;99394.47;4968195;28;20026;-94
2022/09/09 00:23:25;;;;;;;3.40;1.85;;;;;;;21.54;45.15;99397.00;4983370;28;20029;-95
2022/09/09 00:26:17;;;;;;;2.95;1.90;;;;;;;21.76;44.52;99409.44;5000546;28;20030;-95
2022/09/09 00:29:00;;;;;;;4.40;1.67;;;;;;;21.69;44.35;99392.00;4986042;28;20057;-94
2022/09/09 00:31:33;;;;;;;5.82;2.03;;;;;;;21.57;46.13;99398.25;4985261;28;20017;-95
2022/09/09 00:34:02;;;;;;;3.28;2.08;;;;;;;21.50;44.88;99390.63;4983901;28;20452;-93
2022/09/09 00:36:28;;;;;;;2.95;1.90;;;;;;;21.49;44.83;99391.75;4982670;28;20026;-95
2022/09/09 00:38:59;;;;;;;2.40;1.45;;;;;;;21.54;44.48;99371.53;4983855;28;20026;-95
2022/09/09 00:41:37;;;;;;;2.00;1.60;;;;;;;21.72;44.19;99396.78;4999810;28;20041;-95
2022/09/09 00:44:13;;;;;;;3.28;1.85;;;;;;;21.66;44.50;99387.19;5016031;28;20396;-91
2022/09/09 00:46:59;;;;;;;3.88;1.92;;;;;;;21.60;43.95;99375.66;4998584;28;20079;-91
2022/09/09 00:49:25;;;;;;;5.38;1.77;;;;;;;21.57;47.19;99399.06;4983632;28;20054;-93
2022/09/09 00:52:09;;;;;;;5.65;2.30;;;;;;;21.22;48.14;99398.63;5010524;28;20029;-92
2022/09/09 00:54:34;;;;;;;3.65;2.03;;;;;;;21.03;48.38;99401.09;5017635;28;20108;-92
2022/09/09 00:57:29;;;;;;;3.20;2.10;;;;;;;20.81;48.06;99369.44;5031604;28;20048;-92
2022/09/09 00:59:59;;;;;;;2.55;1.88;;;;;;;20.98;47.01;99363.78;5006994;28;20052;-92
2022/09/09 01:03:06;;;;;;;3.72;1.77;;;;;;;21.26;46.95;99391.34;5037976;28;20025;-93
2022/09/09 01:05:55;;;;;;;2.58;1.80;;;;;;;21.02;47.65;99361.16;5028971;28;20105;-92
2022/09/09 01:08:46;;;;;;;4.10;1.95;;;;;;;21.12;47.01;99385.38;5040058;28;20021;-91
2022/09/09 01:11:20;;;;;;;4.10;2.25;;;;;;;20.83;48.22;99367.16;5053418;28;20391;-91
2022/09/09 01:13:47;;;;;;;2.67;1.98;;;;;;;20.71;48.41;99359.69;5020830;28;20037;-91
2022/09/09 01:16:12;;;;;;;2.70;2.15;;;;;;;20.72;48.27;99364.03;5004751;28;20124;-91
2022/09/09 01:18:44;;;;;;;6.15;2.40;;;;;;;20.90;48.05;99372.91;5020411;28;20056;-91
2022/09/09 01:21:17;;;;;;;2.88;2.05;;;;;;;20.92;47.98;99371.41;5010245;28;20552;-91
2022/09/09 01:24:20;;;;;;;6.15;2.15;;;;;;;21.10;48.10;99393.13;4982945;28;20476;-91
2022/09/09 01:26:46;;;;;;;3.45;1.83;;;;;;;20.95;47.92;99378.94;4998660;28;20030;-92
2022/09/09 01:29:17;;;;;;;2.92;1.92;;;;;;;20.95;47.76;99376.19;4966480;28;20055;-91
2022/09/09 01:31:55;;;;;;;4.45;2.45;;;;;;;20.83;47.79;99358.94;4981918;28;20022;-92
2022/09/09 01:34:21;;;;;;;2.95;1.83;;;;;;;20.79;48.22;99359.63;4982268;28;20038;-92
2022/09/09 01:37:04;;;;;;;3.67;1.80;;;;;;;21.02;48.09;99394.00;4980876;28;20026;-91
2022/09/09 01:39:30;;;;;;;3.10;1.98;;;;;;;20.92;48.46;99381.56;4997458;28;20465;-92
2022/09/09 01:41:55;;;;;;;4.13;2.28;;;;;;;20.75;48.68;99363.34;4965059;28;20053;-91
2022/09/09 01:44:21;;;;;;;2.95;1.95;;;;;;;20.81;48.95;99386.63;4964614;28;20041;-91
2022/09/09 01:46:46;;;;;;;3.15;2.00;;;;;;;20.51;49.19;99369.50;4979591;28;20042;-91
2022/09/09 01:49:12;;;;;;;3.13;2.03;;;;;;;20.43;49.26;99384.06;4964525;28;20069;-92
2022/09/09 01:51:38;;;;;;;5.90;2.20;;;;;;;20.52;49.29;99368.38;5002967;28;20423;-92
2022/09/09 01:54:06;;;;;;;3.67;2.00;;;;;;;20.44;49.67;99371.97;5003612;28;20564;-92
2022/09/09 01:56:54;;;;;;;4.07;2.03;;;;;;;20.48;49.43;99370.16;5009069;28;20025;-92
2022/09/09 01:59:20;;;;;;;5.47;2.22;;;;;;;20.65;48.37;99383.75;5000845;28;20068;-91
2022/09/09 02:02:03;;;;;;;4.15;2.95;;;;;;;20.65;49.04;99386.47;5016692;28;20029;-91
2022/09/09 02:04:41;;;;;;;6.13;2.05;;;;;;;20.48;49.00;99381.94;5016423;28;20031;-91
2022/09/09 02:07:31;;;;;;;4.38;2.20;;;;;;;20.41;49.53;99394.53;4984575;28;20030;-91
2022/09/09 02:10:20;;;;;;;3.63;2.20;;;;;;;20.31;49.85;99374.63;5014043;28;20025;-92
2022/09/09 02:12:48;;;;;;;5.00;2.53;;;;;;;20.27;49.62;99367.44;4981212;28;20014;-92
2022/09/09 02:15:20;;;;;;;2.88;2.15;;;;;;;20.23;49.72;99367.31;4981059;28;20386;-92
2022/09/09 02:17:45;;;;;;;5.10;2.30;;;;;;;20.33;50.11;99388.00;4980426;28;20623;-92
2022/09/09 02:20:14;;;;;;;3.38;2.17;;;;;;;20.17;50.51;99369.44;4980244;28;20041;-92
2022/09/09 02:22:40;;;;;;;3.53;2.20;;;;;;;20.06;50.55;99365.50;4996365;28;20049;-91
2022/09/09 02:25:07;;;;;;;3.28;2.08;;;;;;;20.09;50.35;99364.06;4996134;28;20021;-92
2022/09/09 02:27:32;;;;;;;3.67;2.10;;;;;;;20.26;49.98;99361.19;4964853;28;20029;-92
2022/09/09 02:29:58;;;;;;;5.78;2.25;;;;;;;20.27;49.89;99357.31;4979830;28;20041;-92
2022/09/09 02:32:23;;;;;;;5.30;2.63;;;;;;;20.24;49.92;99357.97;4998295;28;20024;-92
2022/09/09 02:34:52;;;;;;;4.25;2.63;;;;;;;20.13;50.01;99348.56;5019392;28;20026;-91
2022/09/09 02:37:19;;;;;;;4.55;2.28;;;;;;;20.14;50.26;99352.91;5002944;28;20021;-91
2022/09/09 02:39:44;;;;;;;3.67;2.03;;;;;;;20.17;50.24;99360.44;5019405;28;20406;-91
2022/09/09 02:42:10;;;;;;;2.13;1.75;;;;;;;20.16;50.37;99350.66;5019950;28;20016;-91
2022/09/09 02:44:36;;;;;;;3.88;1.95;;;;;;;20.21;50.35;99344.16;5020284;28;20027;-91
2022/09/09 02:47:21;;;;;;;2.45;2.03;;;;;;;20.39;50.38;99373.78;5020362;28;20024;-92
2022/09/09 02:49:55;;;;;;;3.00;1.80;;;;;;;20.37;50.32;99369.78;5035833;28;20041;-91
2022/09/09 02:52:26;;;;;;;3.28;2.20;;;;;;;20.36;50.05;99357.25;5035088;28;20025;-91
2022/09/09 02:54:53;;;;;;;3.70;2.10;;;;;;;20.37;50.37;99370.56;5002773;28;20047;-92
2022/09/09 02:57:29;;;;;;;4.30;2.40;;;;;;;20.23;50.30;99344.63;5019226;28;20036;-91
2022/09/09 03:00:00;;;;;;;4.65;2.40;;;;;;;20.35;50.18;99358.38;5019264;28;20025;-91
2022/09/09 03:02:25;;;;;;;2.90;1.90;;;;;;;20.27;49.72;99345.56;4997916;28;20574;-92
2022/09/09 03:04:51;;;;;;;3.70;2.03;;;;;;;20.31;49.69;99346.50;4980035;28;20045;-91
2022/09/09 03:07:19;;;;;;;4.50;1.80;;;;;;;20.38;47.65;99354.97;5013961;28;20021;-91
2022/09/09 03:09:45;;;;;;;9.68;2.15;;;;;;;20.33;47.96;99347.75;5023895;28;20020;-91
2022/09/09 03:12:11;;;;;;;5.05;2.75;;;;;;;19.98;52.20;99349.94;5004493;28;20018;-91
2022/09/09 03:14:37;;;;;;;3.88;2.40;;;;;;;19.77;52.31;99345.25;4967369;28;20030;-91
2022/09/09 03:17:04;;;;;;;6.57;4.78;;;;;;;19.61;51.96;99340.66;5013424;28;20044;-92
2022/09/09 03:19:29;;;;;;;3.38;2.30;;;;;;;19.44;52.52;99328.69;5023527;28;20534;-91
2022/09/09 03:21:55;;;;;;;2.80;2.10;;;;;;;19.49;52.54;99338.66;4990213;28;20060;-91
2022/09/09 03:24:22;;;;;;;3.75;2.63;;;;;;;19.56;52.11;99333.47;4967834;28;20083;-91
2022/09/09 03:26:48;;;;;;;6.32;2.55;;;;;;;19.75;52.26;99369.38;4968725;28;20118;-90
2022/09/09 03:29:14;;;;;;;3.65;2.40;;;;;;;19.70;51.98;99349.63;4967186;28;20034;-91
2022/09/09 03:31:40;;;;;;;5.03;2.53;;;;;;;19.66;52.17;99332.28;4992633;28;20022;-90
2022/09/09 03:34:05;;;;;;;4.15;1.77;;;;;;;19.75;51.71;99352.19;4983267;28;20025;-91
2022/09/09 03:36:31;;;;;;;11.15;2.85;;;;;;;19.79;51.36;99358.59;4983559;28;20033;-91
2022/09/09 03:38:56;;;;;;;5.32;2.10;;;;;;;19.83;51.04;99359.53;4967325;28;20064;-91
2022/09/09 03:41:23;;;;;;;3.28;2.25;;;;;;;19.64;52.98;99350.94;4967943;28;20030;-90
2022/09/09 03:43:50;;;;;;;5.75;3.00;;;;;;;19.41;53.93;99358.59;4983057;28;20037;-91
2022/09/09 03:46:16;;;;;;;3.92;2.80;;;;;;;19.37;54.52;99361.97;4983717;28;20033;-91
2022/09/09 03:48:44;;;;;;;7.30;3.40;;;;;;;19.24;55.11;99370.41;4979923;28;20226;-93
2022/09/09 03:51:10;;;;;;;8.55;3.00;;;;;;;19.14;55.46;99366.09;4995689;28;20121;-91
2022/09/09 03:53:36;;;;;;;5.70;2.70;;;;;;;19.16;55.31;99356.44;4979607;28;20447;-92
2022/09/09 03:56:03;;;;;;;5.57;3.10;;;;;;;19.15;55.97;99363.03;4981913;28;20026;-91
2022/09/09 03:58:28;;;;;;;6.45;2.80;;;;;;;19.31;55.12;99373.41;4962690;28;20488;-92
2022/09/09 04:00:57;;;;;;;4.57;2.80;;;;;;;19.29;54.71;99364.75;4954682;28;20085;-91
2022/09/09 04:03:24;;;;;;;7.55;3.35;;;;;;;19.43;54.93;99383.66;4982883;28;20026;-92
2022/09/09 04:05:53;;;;;;;11.02;3.47;;;;;;;18.87;57.24;99345.44;4992636;28;20374;-91
2022/09/09 04:08:19;;;;;;;8.70;4.20;;;;;;;18.82;57.77;99357.31;4999489;28;20079;-91
2022/09/09 04:10:48;;;;;;;4.78;3.10;;;;;;;18.72;57.85;99352.97;4985517;28;20454;-91
2022/09/09 04:13:16;;;;;;;7.93;3.78;;;;;;;18.74;56.97;99355.41;4985787;28;20040;-91
2022/09/09 04:15:42;;;;;;;6.53;3.08;;;;;;;18.83;56.79;99367.13;4986470;28;20033;-91
2022/09/09 04:18:07;;;;;;;5.65;3.03;;;;;;;18.89;56.61;99389.56;4985578;28;20017;-91
2022/09/09 04:20:35;;;;;;;9.13;3.15;;;;;;;18.91;56.42;99384.59;5002097;28;20022;-91
2022/09/09 04:23:01;;;;;;;10.15;3.28;;;;;;;18.88;56.49;99371.59;5018375;28;20033;-92
2022/09/09 04:25:26;;;;;;;7.45;3.13;;;;;;;19.06;56.22;99383.28;5018934;28;20579;-91
2022/09/09 04:27:56;;;;;;;10.18;3.72;;;;;;;18.93;57.85;99380.41;5002494;28;20021;-91
2022/09/09 04:30:22;;;;;;;7.00;3.38;;;;;;;18.91;57.82;99373.69;4985262;28;20148;-91
2022/09/09 04:32:47;;;;;;;7.38;3.33;;;;;;;18.80;56.93;99362.31;4984930;28;20033;-89
2022/09/09 04:35:13;;;;;;;13.88;10.80;;;;;;;18.80;56.38;99375.13;5000662;28;20021;-90
2022/09/09 04:37:38;;;;;;;8.07;4.82;;;;;;;18.92;55.28;99381.53;4984571;28;20032;-90
2022/09/09 04:40:06;;;;;;;9.13;4.38;;;;;;;19.04;54.82;99386.31;5003339;28;20026;-90
2022/09/09 04:42:36;;;;;;;8.50;4.20;;;;;;;18.99;55.22;99389.25;4985800;28;20064;-91
2022/09/09 04:45:01;;;;;;;6.63;3.60;;;;;;;19.03;55.24;99375.72;5001697;28;20498;-91
2022/09/09 04:47:27;;;;;;;9.02;3.35;;;;;;;19.18;54.66;99400.59;5001047;28;20068;-90
2022/09/09 04:49:54;;;;;;;5.28;2.88;;;;;;;19.21;51.98;99369.09;5001022;28;20045;-91
2022/09/09 04:52:20;;;;;;;6.45;2.65;;;;;;;19.57;49.72;99400.63;4986416;28;20028;-90
2022/09/09 04:54:46;;;;;;;10.10;5.43;;;;;;;19.70;49.03;99393.34;5003912;28;20029;-90
2022/09/09 04:57:12;;;;;;;6.45;2.72;;;;;;;19.79;48.62;99386.72;4985149;28;20133;-91
2022/09/09 04:59:37;;;;;;;7.85;2.90;;;;;;;19.86;48.84;99382.66;5003324;28;20087;-89
2022/09/09 05:02:03;;;;;;;7.78;3.08;;;;;;;19.87;51.17;99387.81;5002265;28;20451;-91
2022/09/09 05:04:34;;;;;;;7.40;3.80;;;;;;;19.84;51.54;99382.19;4994284;28;20033;-93
2022/09/09 05:06:59;;;;;;;8.40;2.97;;;;;;;19.94;51.12;99371.69;5000525;28;20042;-89
2022/09/09 05:09:25;;;;;;;6.38;3.28;;;;;;;20.14;51.87;99400.19;5019908;28;20025;-88
2022/09/09 05:11:51;;;;;;;6.53;3.10;;;;;;;20.14;51.59;99391.97;4989985;28;20108;-87
2022/09/09 05:14:17;;;;;;;7.07;3.50;;;;;;;20.18;51.89;99403.84;5005825;28;20025;-88
2022/09/09 05:16:44;;;;;;;7.43;3.40;;;;;;;20.28;52.73;99412.81;4981413;28;20018;-88
2022/09/09 05:19:11;;;;;;;7.85;3.53;;;;;;;20.32;52.84;99409.06;4977930;28;20469;-91
2022/09/09 05:21:37;;;;;;;5.45;3.03;;;;;;;20.29;51.87;99393.31;4961925;28;20117;-91
2022/09/09 05:24:02;;;;;;;4.80;3.40;;;;;;;20.31;52.32;99393.78;4962764;28;20061;-92
2022/09/09 05:26:32;;;;;;;4.50;2.42;;;;;;;20.38;49.92;99393.28;4946708;28;20036;-88
2022/09/09 05:28:58;;;;;;;8.13;2.25;;;;;;;20.42;48.23;99391.47;4976640;28;20053;-89
2022/09/09 05:31:28;;;;;;;4.30;2.05;;;;;;;20.56;47.10;99382.97;4985212;28;20038;-91
2022/09/09 05:33:53;;;;;;;5.35;2.30;;;;;;;20.75;46.79;99391.53;4966142;28;20033;-90
2022/09/09 05:36:20;;;;;;;3.97;2.30;;;;;;;20.95;46.06;99397.31;4976487;28;20030;-90
2022/09/09 05:38:46;;;;;;;6.63;2.30;;;;;;;20.90;46.30;99372.91;4946124;28;20105;-90
2022/09/09 05:41:12;;;;;;;3.00;2.00;;;;;;;21.08;46.73;99400.88;4945404;28;20485;-92
2022/09/09 05:43:38;;;;;;;2.40;1.77;;;;;;;21.11;46.34;99384.56;4962589;28;20032;-92
2022/09/09 05:46:14;;;;;;;3.22;2.15;;;;;;;21.12;46.13;99360.72;4946394;28;20029;-91
2022/09/09 05:48:41;;;;;;;9.85;3.22;;;;;;;21.24;46.60;99352.53;4955834;28;20092;-91
2022/09/09 05:51:08;;;;;;;7.43;3.75;;;;;;;21.32;47.95;99356.31;4965513;28;20468;-92
2022/09/09 05:53:37;;;;;;;6.88;2.83;;;;;;;21.30;48.38;99342.16;4966196;28;20037;-92
2022/09/09 05:56:10;;;;;;;4.35;2.42;;;;;;;21.46;46.63;99351.34;4982084;28;20032;-92
2022/09/09 05:58:36;;;;;;;14.43;3.03;;;;;;;21.48;45.95;99362.75;4982145;28;20025;-92
2022/09/09 06:01:09;;;;;;;6.07;2.53;;;;;;;21.59;46.22;99365.84;4982458;28;20037;-93
2022/09/09 06:03:35;;;;;;;8.45;2.90;;;;;;;21.56;47.35;99352.81;4982290;28;20033;-94
2022/09/09 06:06:05;;;;;;;3.95;2.58;;;;;;;21.65;46.79;99344.50;4981610;28;20045;-94
2022/09/09 06:08:36;;;;;;;4.63;2.50;;;;;;;21.83;45.54;99358.75;4980614;28;20121;-92
2022/09/09 06:11:04;;;;;;;3.63;2.15;;;;;;;21.87;45.30;99352.25;4964893;28;20034;-93
2022/09/09 06:13:29;;;;;;;7.15;1.88;;;;;;;22.09;44.53;99356.41;4964918;28;20038;-91
2022/09/09 06:15:55;;;;;;;6.05;2.20;;;;;;;22.14;44.12;99358.13;4981018;28;20053;-91
2022/09/09 06:18:25;;;;;;;3.50;2.55;;;;;;;22.31;44.90;99352.41;4996879;28;20033;-93
2022/09/09 06:21:04;;;;;;;16.70;3.22;;;;;;;22.25;44.34;99345.56;4978254;28;20063;-92
2022/09/09 06:23:29;;;;;;;5.40;2.97;;;;;;;22.30;44.10;99344.50;4975842;28;20030;-93
2022/09/09 06:26:14;;;;;;;5.80;2.72;;;;;;;22.51;44.99;99360.78;4966503;28;20137;-94
2022/09/09 06:28:41;;;;;;;5.05;2.70;;;;;;;22.64;45.24;99364.28;5019060;28;20035;-90
2022/09/09 06:31:25;;;;;;;3.97;2.72;;;;;;;22.64;44.62;99342.31;5010322;28;20026;-92
2022/09/09 06:34:00;;;;;;;3.20;1.75;;;;;;;22.73;43.42;99348.47;5023520;28;20029;-90
2022/09/09 06:36:36;;;;;;;4.88;2.72;;;;;;;22.75;43.28;99337.94;5011804;28;20033;-92
2022/09/09 06:39:02;;;;;;;4.30;2.30;;;;;;;22.86;43.51;99336.25;4975787;28;20037;-92
2022/09/09 06:41:30;;;;;;;5.32;2.97;;;;;;;23.12;43.22;99357.78;4984605;28;20022;-95
2022/09/09 06:43:55;;;;;;;6.63;3.00;;;;;;;23.19;43.34;99352.44;4989231;28;20049;-93
2022/09/09 06:46:22;;;;;;;5.47;3.70;;;;;;;23.41;42.79;99355.75;4982883;28;20038;-95
2022/09/09 06:48:48;;;;;;;6.90;4.20;;;;;;;23.43;42.99;99339.72;4970979;28;20051;-90
2022/09/09 06:51:18;;;;;;;8.25;5.10;;;;;;;23.68;42.85;99359.53;4977433;28;20095;-89
2022/09/09 06:53:44;;;;;;;5.38;2.40;;;;;;;23.60;41.52;99327.53;4995128;28;20104;-91
2022/09/09 06:56:16;;;;;;;3.60;2.42;;;;;;;23.91;40.93;99354.22;4965237;28;20093;-92
2022/09/09 06:58:44;;;;;;;;;;;;;;;24.05;41.50;99352.91;4987812;28;20025;-92
2022/09/09 07:01:16;;;;;;;7.22;2.95;;;;;;;24.05;41.15;99345.50;5016938;28;19909;-93
2022/09/09 07:03:45;;;;;;;5.05;2.22;;;;;;;24.25;41.14;99351.78;5017373;28;20029;-93
2022/09/09 07:06:16;;;;;;;7.93;3.03;;;;;;;24.25;40.44;99343.53;4996674;28;20029;-92
2022/09/09 07:08:42;;;;;;;2.83;1.90;;;;;;;24.38;39.89;99334.00;4977386;28;20029;-91
2022/09/09 07:11:10;;;;;;;3.92;2.33;;;;;;;24.49;39.73;99327.91;4961583;28;20022;-91
2022/09/09 07:13:36;;;;;;;7.00;2.92;;;;;;;24.63;39.36;99330.94;4984899;28;20060;-91
2022/09/09 07:16:09;;;;;;;6.78;2.80;;;;;;;24.70;39.41;99322.03;4964220;28;20038;-92
2022/09/09 07:18:34;;;;;;;10.55;4.72;;;;;;;24.85;39.38;99320.34;4984945;28;20030;-92
2022/09/09 07:21:00;;;;;;;3.72;1.92;;;;;;;25.03;39.23;99338.00;4983190;28;20022;-92
2022/09/09 07:23:26;;;;;;;3.05;2.10;;;;;;;25.13;38.75;99340.16;4980418;28;20398;-94
2022/09/09 07:25:52;;;;;;;5.40;3.30;;;;;;;25.17;38.81;99318.13;4980210;28;20061;-96
2022/09/09 07:28:31;;;;;;;10.65;3.75;;;;;;;25.37;37.29;99327.97;4983857;28;20088;-96
2022/09/09 07:30:57;;;;;;;4.40;2.50;;;;;;;25.54;37.13;99323.09;4985130;28;20104;-93
2022/09/09 07:33:27;;;;;;;5.53;3.75;;;;;;;25.73;36.71;99342.31;4980798;28;20034;-91
2022/09/09 07:35:52;;;;;;;4.80;2.60;;;;;;;25.64;37.97;99318.91;4979603;28;20049;-92
2022/09/09 07:38:19;;;;;;;4.43;2.40;;;;;;;25.87;37.35;99343.69;4980758;28;20018;-92
2022/09/09 07:40:48;;;;;;;4.07;2.42;;;;;;;25.96;37.54;99330.44;4964463;28;20021;-92
2022/09/09 07:43:43;;;;;;;2.40;2.05;;;;;;;25.99;37.61;99321.41;4996663;28;20467;-94
2022/09/09 07:46:09;;;;;;;5.05;2.33;;;;;;;26.19;37.02;99328.38;4970423;28;20093;-92
2022/09/09 07:48:35;;;;;;;5.60;1.95;;;;;;;26.40;36.40;99336.13;4987685;28;20041;-94
2022/09/09 07:51:18;;;;;;;2.45;1.88;;;;;;;26.42;35.70;99317.22;4984581;28;20091;-93
2022/09/09 07:54:05;;;;;;;3.75;1.88;;;;;;;26.58;36.16;99319.00;5001344;28;20052;-92
2022/09/09 07:56:34;;;;;;;2.92;2.20;;;;;;;26.68;35.65;99320.28;4992125;28;20026;-92
2022/09/09 07:59:04;;;;;;;5.70;2.90;;;;;;;26.80;35.72;99317.28;4967079;28;20029;-92
2022/09/09 08:01:53;;;;;;;10.02;3.50;;;;;;;26.94;34.60;99322.94;4967354;28;20053;-91
2022/09/09 08:04:36;;;;;;;;;;;;;;;;;;;;;
2022/09/09 08:07:37;;;;;;;5.20;2.42;;;;;;;27.18;34.35;99316.03;4987464;28;20070;-91
2022/09/09 08:10:22;;;;;;;4.07;2.20;;;;;;;27.38;33.23;99304.78;4992412;28;20080;-94
2022/09/09 08:12:48;;;;;;;3.40;1.92;;;;;;;27.61;33.22;99333.00;4998593;28;20033;-94
2022/09/09 08:15:47;;;;;;;;;;;;;;;;;;;;;
2022/09/09 08:18:16;;;;;;;7.00;2.05;;;;;;;27.73;32.84;99312.53;5007225;28;20396;-90
2022/09/09 08:20:42;;;;;;;3.28;2.17;;;;;;;27.90;33.32;99318.59;4998991;28;20193;-92
2022/09/09 08:23:07;;;;;;;8.23;5.30;;;;;;;27.84;32.88;99298.75;4998875;28;20536;-91
2022/09/09 08:25:34;;;;;;;4.20;2.83;;;;;;;28.06;32.73;99315.47;4982918;28;20029;-90
2022/09/09 08:28:05;;;;;;;4.78;2.38;;;;;;;28.07;32.78;99294.94;4982288;28;20069;-95
2022/09/09 08:30:31;;;;;;;7.53;3.50;;;;;;;28.17;31.65;99289.44;4966067;28;20026;-93
2022/09/09 08:32:56;;;;;;;4.35;2.60;;;;;;;28.38;33.17;99310.09;4966759;28;20080;-92
2022/09/09 08:35:22;;;;;;;5.53;2.78;;;;;;;28.36;31.70;99287.53;5002071;28;20372;-92
2022/09/09 08:37:48;;;;;;;5.00;2.63;;;;;;;28.48;32.08;99289.16;4967812;28;20028;-93
2022/09/09 08:40:19;;;;;;;7.30;2.47;;;;;;;28.56;31.24;99282.47;4972403;28;20037;-93
2022/09/09 08:42:47;;;;;;;5.55;3.38;;;;;;;28.61;31.74;99276.53;5000591;28;20025;-91
2022/09/09 08:45:51;;;;;;;3.03;1.98;;;;;;;28.81;31.62;99290.84;4998634;28;20540;-93
2022/09/09 08:48:31;;;;;;;4.72;2.28;;;;;;;28.82;31.20;99289.63;4985318;28;20042;-93
2022/09/09 08:51:09;;;;;;;7.40;3.78;;;;;;;28.87;30.97;99282.94;4983009;28;20030;-93
2022/09/09 08:53:42;;;;;;;6.82;3.97;;;;;;;28.73;32.21;99276.16;4984854;28;20416;-94
2022/09/09 08:56:16;;;;;;;11.02;5.50;;;;;;;28.94;31.58;99283.72;4983604;28;20396;-93
2022/09/09 08:58:49;;;;;;;6.88;2.10;;;;;;;28.98;31.32;99264.31;4966375;28;20030;-93
2022/09/09 09:01:52;;;;;;;2.20;1.60;;;;;;;29.24;30.72;99293.66;4968704;28;20030;-93
2022/09/09 09:04:51;;;;;;;3.15;2.17;;;;;;;29.35;30.96;99290.88;5014743;28;20100;-94
2022/09/09 09:07:41;;;;;;;4.78;2.25;;;;;;;29.28;31.33;99269.50;5022449;28;20243;-94
2022/09/09 09:10:30;;;;;;;4.05;1.90;;;;;;;29.31;30.78;99271.47;5041596;28;20040;-93
2022/09/09 09:13:13;;;;;;;2.55;1.70;;;;;;;29.34;30.78;99270.66;5005715;28;20024;-93
2022/09/09 09:15:39;;;;;;;4.78;2.30;;;;;;;29.30;30.24;99266.31;4967746;28;20030;-92
2022/09/09 09:18:14;;;;;;;7.45;3.15;;;;;;;29.32;30.51;99264.72;4964955;28;20026;-95
2022/09/09 09:21:07;;;;;;;3.70;2.15;;;;;;;29.51;30.61;99277.38;4966555;28;20029;-94
2022/09/09 09:23:45;;;;;;;3.97;1.70;;;;;;;29.37;30.18;99264.31;4996072;28;20029;-92
2022/09/09 09:26:11;;;;;;;2.70;2.03;;;;;;;29.48;30.31;99269.06;4983878;28;20036;-92
2022/09/09 09:28:44;;;;;;;3.08;1.95;;;;;;;29.58;30.52;99282.13;4984986;28;20443;-94
2022/09/09 09:31:19;;;;;;;3.67;2.05;;;;;;;29.53;30.76;99265.88;5001987;28;20028;-92
2022/09/09 09:33:54;;;;;;;3.30;2.10;;;;;;;29.55;30.30;99252.38;4999814;28;20124;-94
2022/09/09 09:36:23;;;;;;;5.20;2.67;;;;;;;29.60;30.62;99263.88;5000635;28;20029;-92
2022/09/09 09:38:59;;;;;;;2.92;2.20;;;;;;;29.67;30.78;99265.06;4984565;28;20037;-93
2022/09/09 09:41:30;;;;;;;4.03;2.50;;;;;;;29.64;31.31;99254.78;5001392;28;20022;-93
2022/09/09 09:44:00;;;;;;;5.40;2.10;;;;;;;29.69;30.26;99262.66;4973833;28;20034;-95
2022/09/09 09:46:26;;;;;;;3.50;2.22;;;;;;;29.77;30.08;99261.50;4999430;28;20026;-93
2022/09/09 09:49:03;;;;;;;4.05;2.50;;;;;;;29.81;30.77;99251.16;4977954;28;20120;-93
2022/09/09 09:51:44;;;;;;;;;;;;;;;;;;;;;
2022/09/09 09:54:28;;;;;;;4.10;2.05;;;;;;;29.96;30.64;99252.69;4980766;28;20027;-93
2022/09/09 09:56:54;;;;;;;5.63;2.35;;;;;;;29.87;30.46;99235.69;4950387;28;20030;-93
2022/09/09 09:59:42;;;;;;;4.97;3.05;;;;;;;29.84;30.84;99239.25;4946121;28;20080;-91
2022/09/09 10:05:22;;;;;;;23.77;9.95;;;;;;;30.04;31.23;99258.22;4960915;28;20049;-91
2022/09/09 10:08:09;;;;;;;7.00;3.80;;;;;;;29.95;30.64;99225.34;4947289;28;20489;-93
2022/09/09 10:11:29;;;;;;;3.95;2.25;;;;;;;30.14;30.56;99255.38;4966592;28;20042;-93
2022/09/09 10:14:20;;;;;;;3.30;2.05;;;;;;;30.15;30.29;99254.22;4957654;28;20093;-92
2022/09/09 10:17:27;;;;;;;4.10;2.25;;;;;;;30.12;30.56;99259.78;4960135;28;20073;-91
2022/09/09 10:20:30;;;;;;;141.82;66.05;;;;;;;30.16;29.92;99249.44;4941512;28;20092;-90
2022/09/09 10:23:11;;;;;;;11.65;7.78;;;;;;;30.16;30.62;99230.78;5005164;28;20108;-89
2022/09/09 10:25:55;;;;;;;5.88;2.45;;;;;;;30.31;29.63;99241.84;4962277;28;20027;-92
2022/09/09 10:28:32;;;;;;;6.90;2.15;;;;;;;30.20;30.24;99236.31;4994207;28;20030;-93
2022/09/09 10:31:30;;;;;;;3.10;2.08;;;;;;;30.23;30.30;99249.38;4961564;28;20052;-89
2022/09/09 10:34:06;;;;;;;3.00;2.28;;;;;;;30.28;30.18;99248.16;4976494;28;20029;-91
2022/09/09 10:36:32;;;;;;;3.75;2.00;;;;;;;30.20;30.32;99231.56;5002468;28;20030;-92
2022/09/09 10:39:04;;;;;;;5.70;2.03;;;;;;;30.32;29.83;99247.00;4996429;28;20033;-90
2022/09/09 10:41:45;;;;;;;2.45;2.08;;;;;;;30.37;29.71;99249.34;4980202;28;20472;-91
2022/09/09 10:44:36;;;;;;;6.20;2.85;;;;;;;30.37;30.67;99248.56;4997977;28;20404;-89
2022/09/09 10:47:29;;;;;;;3.70;2.10;;;;;;;30.45;30.11;99233.44;4976082;28;20041;-91
2022/09/09 10:50:33;;;;;;;2.95;2.13;;;;;;;30.49;29.81;99227.84;4995925;28;20050;-90
2022/09/09 10:53:38;;;;;;;2.25;1.95;;;;;;;30.63;29.79;99236.06;4978594;28;20133;-92
2022/09/09 10:56:09;;;;;;;5.15;2.42;;;;;;;30.56;29.94;99217.47;4994310;28;20030;-91
2022/09/09 10:58:38;;;;;;;4.05;2.63;;;;;;;30.73;30.01;99232.41;4979432;28;20025;-91
2022/09/09 11:01:21;;;;;;;3.00;2.20;;;;;;;30.64;29.59;99209.09;5013834;28;20496;-92
2022/09/09 11:03:49;;;;;;;4.47;2.17;;;;;;;30.61;29.52;99202.38;4982671;28;20029;-94
2022/09/09 11:16:54;;;;;;;5.50;2.55;;;;;;;30.70;29.20;99191.56;4894760;29;20072;-92
2022/09/09 11:19:38;;;;;;;5.28;2.30;;;;;;;30.79;29.42;99199.44;4905572;29;20039;-94
2022/09/09 11:25:36;;;;;;;5.10;2.10;;;;;;;31.02;28.77;99201.63;4955570;29;20077;-94
2022/09/09 11:28:48;;;;;;;3.88;2.50;;;;;;;31.15;28.47;99213.03;4937377;28;20130;-92
2022/09/09 11:34:37;;;;;;;2.97;2.15;;;;;;;31.26;28.12;99197.03;4909509;29;20037;-94
2022/09/09 11:37:56;;;;;;;3.80;2.17;;;;;;;31.40;28.55;99207.25;4996223;28;20025;-94
2022/09/09 11:40:26;;;;;;;4.85;2.30;;;;;;;31.42;28.53;99190.91;4997921;28;20034;-93
2022/09/09 11:43:23;;;;;;;2.72;2.25;;;;;;;31.55;28.55;99205.13;4975847;28;20018;-91
2022/09/09 11:46:27;;;;;;;3.17;2.60;;;;;;;31.52;28.61;99178.88;4997135;28;20030;-92
2022/09/09 11:49:03;;;;;;;4.10;2.30;;;;;;;31.45;28.47;99167.84;5002920;28;20041;-92
2022/09/09 11:51:30;;;;;;;2.95;2.05;;;;;;;31.42;28.36;99163.09;4982514;28;20034;-92
2022/09/09 11:54:04;;;;;;;4.82;2.55;;;;;;;31.28;28.79;99166.03;4998403;28;20030;-93
2022/09/09 11:56:43;;;;;;;5.40;2.30;;;;;;;31.52;28.75;99175.31;4968119;28;20033;-92
2022/09/09 11:59:29;;;;;;;4.82;2.60;;;;;;;31.50;28.52;99149.88;4983150;28;20033;-92
2022/09/09 12:19:22;;;;;;;2.92;1.98;;;;;;;31.97;27.98;99125.00;5012265;23;20045;-94
2022/09/09 12:23:11;;;;;;;;;;;;;;;;;;;;;
2022/09/09 12:26:01;;;;;;;3.42;2.45;;;;;;;32.10;28.51;99145.53;4918897;29;20033;-96
2022/09/09 12:31:51;;;;;;;5.18;2.25;;;;;;;32.14;27.46;99131.56;5453114;22;20034;-96
2022/09/09 12:34:50;;;;;;;4.88;2.13;;;;;;;32.13;27.55;99119.63;5051353;28;20049;-96
2022/09/09 12:37:45;;;;;;;4.53;2.40;;;;;;;32.03;27.78;99114.22;5001791;28;20030;-96
2022/09/09 12:40:37;;;;;;;4.35;2.17;;;;;;;32.07;27.48;99107.38;5014576;28;20036;-96
2022/09/09 12:50:45;;;;;;;5.05;2.72;;;;;;;31.73;28.91;99126.94;4984582;28;20057;-95
2022/09/09 12:54:03;;;;;;;8.32;3.20;;;;;;;31.35;29.15;99093.59;4986116;28;20102;-96
2022/09/09 12:56:40;;;;;;;7.22;3.63;;;;;;;31.25;29.08;99091.72;5259781;23;20109;-96
2022/09/09 12:59:53;;;;;;;7.68;3.17;;;;;;;31.28;29.66;99121.50;5053092;28;20029;-94
2022/09/09 13:21:57;;;;;;;4.63;3.28;;;;;;;30.36;31.29;99099.72;4973891;28;20063;-96